Date,TemperatureHighF,TemperatureAvgF,TemperatureLowF,DewpointHighF,DewpointAvgF,DewpointLowF,HumidityHigh,HumidityAvg,HumidityLow,PressureMaxIn,PressureMinIn,WindSpeedMaxMPH,WindSpeedAvgMPH,GustSpeedMaxMPH,PrecipitationSumIn
2013-4-1,60,50,42,-100,-100,-100,0,0,100,0.00,40.00,0,0,0,0.00
2013-4-2,65,54,45,-100,-100,-100,0,0,100,0.00,40.00,0,0,0,0.00
2013-4-3,75,59,36,-100,-100,-100,0,0,100,0.00,40.00,0,0,0,0.00
2013-4-4,69,56,43,-100,-100,-100,0,0,100,0.00,40.00,0,0,0,0.00
2013-4-5,63,54,47,-100,-100,-100,0,0,100,0.00,40.00,0,0,0,0.00
2013-4-6,59,50,44,-100,-100,-100,0,0,100,0.00,40.00,0,-65,0,0.00
2013-4-7,62,51,44,-100,-100,-100,0,0,100,0.00,40.00,0,0,0,0.00
2013-4-8,51,41,34,-100,-100,-100,0,0,100,0.00,40.00,0,0,0,0.00
2013-4-9,61,46,35,-100,-100,-100,0,0,100,0.00,40.00,0,0,0,0.00
2013-4-10,72,52,28,-100,-100,-100,0,0,100,0.00,40.00,0,0,0,0.00
2013-4-11,72,60,48,-100,-100,-100,0,0,100,0.00,40.00,0,0,0,0.00
2013-4-12,79,57,39,-100,-100,-100,0,0,100,0.00,40.00,0,0,0,0.00
2013-4-13,73,61,47,-100,-100,-100,0,0,100,0.00,40.00,0,0,0,0.00
2013-4-14,65,56,46,-100,-100,-100,0,0,100,0.00,40.00,0,0,0,0.00
2013-4-15,57,47,41,-100,-100,-100,0,0,100,0.00,40.00,0,0,0,0.00
2013-4-16,51,42,31,-100,-100,-100,0,0,100,0.00,40.00,0,0,0,0.00
2013-4-17,58,44,30,-100,-100,-100,0,0,100,0.00,40.00,0,0,0,0.00
2013-4-18,65,49,26,-100,-100,-100,0,0,100,0.00,40.00,0,0,0,0.00
2013-4-19,74,51,29,-100,-100,-100,0,0,100,0.00,40.00,0,0,0,0.00
2013-4-20,77,62,50,-100,-100,-100,0,0,100,0.00,40.00,0,0,0,0.00
2013-4-21,81,62,42,-100,-100,-100,0,0,100,0.00,40.00,0,0,0,0.00
2013-4-22,78,63,54,-100,-100,-100,0,0,100,0.00,40.00,0,0,0,0.00
2013-4-23,73,60,45,-100,-100,-100,0,0,100,0.00,40.00,0,0,0,0.00
2013-4-24,76,62,37,-100,-100,-100,0,0,100,0.00,40.00,0,-70,0,0.00
2013-4-25,71,59,48,-100,-100,-100,0,0,100,0.00,40.00,0,0,0,0.00
2013-4-26,80,62,48,-100,-100,-100,0,0,100,0.00,40.00,0,0,0,0.00
2013-4-27,85,68,43,-100,-100,-100,0,0,100,0.00,40.00,0,0,0,0.00
2013-4-28,85,68,51,-100,-100,-100,0,0,100,0.00,40.00,0,0,0,0.00
2013-4-29,81,69,48,-100,-100,-100,0,0,100,0.00,40.00,0,0,0,0.00
2013-4-30,80,68,59,-100,-100,-100,0,0,100,0.00,40.00,0,0,0,0.00